ローマ/フィウミチーノ の空港の天気 - METARとTAF

ローマ・レオナルド・ダ・ビンチ国際空港 ( LIRF / FCO ) - イタリア ローマ
飛行場実況気象(Metar)
観測時間05/28 10:50 CEST (05/28 08:50 UTC)
風向・風速西南西 3m/s
視程10km以上
天気現象
なし
気温30℃
湿度40%
気圧1006hPa
METARLIRF 280850Z 24006KT 200V270 CAVOK 30/15 Q1006 NOSIG
過去の天気等 Google飛行場航空写真 Wunderground天気予報

過去48時間のMETAR

飛行場予報(TAF)
発表時間: 5/28 07:00 CEST (5/28 05:00 UTC)
予報対象時間: 28日8時 CEST ~ 29日14時 CEST
風向・風速東北東 4m/s
視程10km以上
なし
28日10時 CEST ~ 28日12時 CEST に徐々に
風向・風速南西 6m/s
28日20時 CEST ~ 28日22時 CEST に徐々に
風向・風速不定 3m/s
TAF LIRF 280500Z 2806/2912 06007KT CAVOK
BECMG 2808/2810 22012KT
BECMG 2818/2820 VRB05KT